createdAt,value
2023-12-05T00:01:10.496Z,11.80
2023-12-05T00:04:13.051Z,11.93
2023-12-05T00:07:15.530Z,10.40
2023-12-05T00:10:17.981Z,9.98
2023-12-05T00:13:20.421Z,11.32
2023-12-05T00:16:22.848Z,10.43
2023-12-05T00:19:25.256Z,11.30
2023-12-05T00:22:28.603Z,11.43
2023-12-05T00:25:30.984Z,10.52
2023-12-05T00:28:33.417Z,11.80
2023-12-05T00:31:35.777Z,11.40
2023-12-05T00:34:38.188Z,10.93
2023-12-05T00:37:40.621Z,11.23
2023-12-05T00:40:43.027Z,11.32
2023-12-05T00:43:45.579Z,11.35
2023-12-05T00:46:47.953Z,10.87
2023-12-05T00:49:50.348Z,11.40
2023-12-05T00:52:52.738Z,10.77
2023-12-05T00:55:55.157Z,11.13
2023-12-05T00:58:57.499Z,11.40
2023-12-05T01:02:00.524Z,11.73
2023-12-05T01:05:04.029Z,11.23
2023-12-05T01:08:06.656Z,11.10
2023-12-05T01:11:11.481Z,11.48
2023-12-05T01:14:13.923Z,10.98
2023-12-05T01:17:19.072Z,11.63
2023-12-05T01:20:21.797Z,11.47
2023-12-05T01:23:24.432Z,11.55
2023-12-05T01:26:26.888Z,12.02
2023-12-05T01:29:29.654Z,11.50
2023-12-05T01:32:32.145Z,12.00
2023-12-05T01:35:34.638Z,10.90
2023-12-05T01:38:37.039Z,12.15
2023-12-05T01:41:39.475Z,12.95
2023-12-05T01:44:41.849Z,11.82
2023-12-05T01:47:44.384Z,12.07
2023-12-05T01:50:46.809Z,12.47
2023-12-05T01:53:49.737Z,13.55
2023-12-05T01:56:52.182Z,12.25
2023-12-05T01:59:54.548Z,12.05
2023-12-05T02:02:58.110Z,11.03
2023-12-05T02:06:00.522Z,10.90
2023-12-05T02:09:04.275Z,11.57
2023-12-05T02:12:07.069Z,10.77
2023-12-05T02:15:09.560Z,12.13
2023-12-05T02:18:17.828Z,11.37
2023-12-05T02:21:22.024Z,11.57
2023-12-05T02:24:48.023Z,11.27
2023-12-05T02:27:50.489Z,10.25
2023-12-05T02:30:53.818Z,11.50
2023-12-05T02:33:56.400Z,11.70
2023-12-05T02:37:05.971Z,11.90
2023-12-05T02:40:11.923Z,12.05
2023-12-05T02:43:17.317Z,12.50
2023-12-05T02:46:19.701Z,12.38
2023-12-05T02:49:22.234Z,12.83
2023-12-05T02:52:24.677Z,12.60
2023-12-05T02:55:27.027Z,12.25
2023-12-05T02:58:29.974Z,12.88
2023-12-05T03:01:38.379Z,12.43
2023-12-05T03:04:40.981Z,12.60
2023-12-05T03:07:43.468Z,12.83
2023-12-05T03:10:54.873Z,12.18
2023-12-05T03:14:03.851Z,12.02
2023-12-05T03:17:06.345Z,11.68
2023-12-05T03:20:09.135Z,12.13
2023-12-05T03:23:11.505Z,12.40
2023-12-05T03:26:20.685Z,14.10
2023-12-05T03:29:23.137Z,13.98
2023-12-05T03:32:25.570Z,14.95
2023-12-05T03:35:27.962Z,14.20
2023-12-05T03:38:30.339Z,13.03
2023-12-05T03:41:32.758Z,12.27
2023-12-05T03:44:35.162Z,12.05
2023-12-05T03:47:37.616Z,12.23
2023-12-05T03:50:40.021Z,14.83
2023-12-05T03:53:42.433Z,18.73
2023-12-05T03:56:44.849Z,17.50
2023-12-05T03:59:47.847Z,15.68
2023-12-05T04:02:50.253Z,15.05
2023-12-05T04:05:52.680Z,13.60
2023-12-05T04:08:55.100Z,13.37
2023-12-05T04:11:59.039Z,13.20
2023-12-05T04:15:01.481Z,13.35
2023-12-05T04:18:04.010Z,13.00
2023-12-05T04:21:06.588Z,17.90
2023-12-05T04:24:08.944Z,20.37
2023-12-05T04:27:11.386Z,16.65
2023-12-05T04:30:13.953Z,15.75
2023-12-05T04:33:16.697Z,13.70
2023-12-05T04:36:19.162Z,13.67
2023-12-05T04:39:21.623Z,13.40
2023-12-05T04:42:24.048Z,13.23
2023-12-05T04:45:26.528Z,13.55
2023-12-05T04:48:29.253Z,13.05
2023-12-05T04:51:32.346Z,13.73
2023-12-05T04:54:34.764Z,14.00
2023-12-05T04:57:37.276Z,12.30
2023-12-05T05:00:39.890Z,13.95
2023-12-05T05:03:42.434Z,12.63
2023-12-05T05:06:45.003Z,7.70
2023-12-05T05:09:47.476Z,11.33
2023-12-05T05:12:50.020Z,8.73
2023-12-05T05:15:52.479Z,9.10
2023-12-05T05:18:55.046Z,9.88
2023-12-05T05:21:57.580Z,11.50
2023-12-05T05:25:00.220Z,12.30
2023-12-05T05:28:02.934Z,14.25
2023-12-05T05:31:05.511Z,14.65
2023-12-05T05:34:07.948Z,14.98
2023-12-05T05:37:10.303Z,16.47
2023-12-05T05:40:12.889Z,17.43
2023-12-05T05:43:15.303Z,16.00
2023-12-05T05:46:17.698Z,18.40
2023-12-05T05:49:20.216Z,17.60
2023-12-05T05:52:22.635Z,13.67
2023-12-05T05:55:26.248Z,14.70
2023-12-05T05:58:29.057Z,17.55
2023-12-05T06:01:31.839Z,17.40
2023-12-05T06:04:34.391Z,15.02
2023-12-05T06:07:38.379Z,14.53
2023-12-05T06:10:41.506Z,16.00
2023-12-05T06:13:43.889Z,15.30
2023-12-05T06:16:46.315Z,16.83
2023-12-05T06:19:48.807Z,16.13
2023-12-05T06:22:51.266Z,15.83
2023-12-05T06:25:53.648Z,15.30
2023-12-05T06:28:56.107Z,16.77
2023-12-05T06:31:58.506Z,20.60
2023-12-05T06:35:01.034Z,22.52
2023-12-05T06:38:03.410Z,20.70
2023-12-05T06:41:06.281Z,17.57
2023-12-05T06:44:08.704Z,17.85
2023-12-05T06:47:11.061Z,18.88
2023-12-05T06:50:13.503Z,19.55
2023-12-05T06:53:15.908Z,18.67
2023-12-05T06:56:19.763Z,17.07
2023-12-05T06:59:22.990Z,19.25
2023-12-05T07:02:25.368Z,20.50
2023-12-05T07:05:27.870Z,19.10
2023-12-05T07:08:30.292Z,18.37
2023-12-05T07:11:32.845Z,19.43
2023-12-05T07:14:38.274Z,17.88
2023-12-05T07:17:40.791Z,17.02
2023-12-05T07:20:43.252Z,15.88
2023-12-05T07:23:52.469Z,15.70
2023-12-05T07:27:01.340Z,15.67
2023-12-05T07:30:04.727Z,15.55
2023-12-05T07:33:07.270Z,15.98
2023-12-05T07:36:10.347Z,15.23
2023-12-05T07:39:14.146Z,15.33
2023-12-05T07:42:16.633Z,17.07
2023-12-05T07:45:19.006Z,16.75
2023-12-05T07:48:21.507Z,16.35
2023-12-05T07:51:24.618Z,15.10
2023-12-05T07:54:28.082Z,13.80
2023-12-05T07:57:30.638Z,15.47
2023-12-05T08:00:33.680Z,14.25
2023-12-05T08:03:36.308Z,14.43
2023-12-05T08:06:38.759Z,14.48
2023-12-05T08:09:41.147Z,16.13
2023-12-05T08:12:43.649Z,14.63
2023-12-05T08:15:46.130Z,14.93
2023-12-05T08:18:48.617Z,15.57
2023-12-05T08:21:51.015Z,15.98
2023-12-05T08:24:53.423Z,14.90
2023-12-05T08:27:55.882Z,15.67
2023-12-05T08:30:58.307Z,15.13
2023-12-05T08:34:01.119Z,14.48
2023-12-05T08:37:04.020Z,15.18
2023-12-05T08:40:08.204Z,14.40
2023-12-05T08:43:11.369Z,14.73
2023-12-05T08:46:14.205Z,14.38
2023-12-05T08:49:16.658Z,14.27
2023-12-05T08:52:20.624Z,15.15
2023-12-05T08:55:23.057Z,16.17
2023-12-05T08:58:25.941Z,15.97
2023-12-05T09:01:29.638Z,17.00
2023-12-05T09:04:32.227Z,16.40
2023-12-05T09:07:34.930Z,15.50
2023-12-05T09:10:37.422Z,16.03
2023-12-05T09:13:40.168Z,16.33
2023-12-05T09:16:42.656Z,15.63
2023-12-05T09:19:45.114Z,14.85
2023-12-05T09:22:47.478Z,16.92
2023-12-05T09:25:49.914Z,16.57
2023-12-05T09:28:52.427Z,15.83
2023-12-05T09:31:54.992Z,17.65
2023-12-05T09:34:57.374Z,17.13
2023-12-05T09:37:59.891Z,16.65
2023-12-05T09:41:02.376Z,16.53
2023-12-05T09:44:05.007Z,16.53
2023-12-05T09:47:07.413Z,16.70
2023-12-05T09:50:10.876Z,16.60
2023-12-05T09:53:13.322Z,16.02
2023-12-05T09:56:16.142Z,16.77
2023-12-05T09:59:18.662Z,17.30
2023-12-05T10:02:22.305Z,15.80
2023-12-05T10:05:24.878Z,17.10
2023-12-05T10:08:27.341Z,18.60
2023-12-05T10:11:29.752Z,17.63
2023-12-05T10:14:32.143Z,16.50
2023-12-05T10:17:35.780Z,16.88
2023-12-05T10:20:39.919Z,16.30
2023-12-05T10:23:42.476Z,16.00
2023-12-05T10:26:46.162Z,16.60
2023-12-05T10:29:48.568Z,17.07
2023-12-05T10:32:51.037Z,20.20
2023-12-05T10:35:53.427Z,19.00
2023-12-05T10:38:55.829Z,17.75
2023-12-05T10:41:58.201Z,18.77
2023-12-05T10:45:05.751Z,27.80
2023-12-05T10:48:08.293Z,30.00
2023-12-05T10:51:10.741Z,29.23
2023-12-05T10:54:14.440Z,25.23
2023-12-05T10:57:16.817Z,22.97
2023-12-05T11:00:20.060Z,18.83
2023-12-05T11:03:22.598Z,16.90
2023-12-05T11:06:26.882Z,16.27
2023-12-05T11:09:29.521Z,15.38
2023-12-05T11:12:32.200Z,15.57
2023-12-05T11:15:40.542Z,15.93
2023-12-05T11:18:44.904Z,15.43
2023-12-05T11:22:09.623Z,15.15
2023-12-05T11:25:33.395Z,15.25
2023-12-05T11:29:03.418Z,18.33
2023-12-05T11:32:26.536Z,16.73
2023-12-05T11:35:59.378Z,16.63
2023-12-05T11:39:01.872Z,16.70
2023-12-05T11:42:15.641Z,17.20
2023-12-05T11:45:22.433Z,16.80
2023-12-05T11:48:27.196Z,16.40
2023-12-05T11:51:32.984Z,16.23
2023-12-05T11:54:35.412Z,15.82
2023-12-05T11:57:37.889Z,19.60
2023-12-05T12:00:40.344Z,17.20
2023-12-05T12:03:55.559Z,17.40
2023-12-05T12:06:59.397Z,16.10
2023-12-05T12:10:03.069Z,16.45
2023-12-05T12:13:05.560Z,17.35
2023-12-05T12:16:08.342Z,16.43
2023-12-05T12:19:13.420Z,20.07
2023-12-05T12:22:16.258Z,20.42
2023-12-05T12:25:20.434Z,19.42
2023-12-05T12:28:32.189Z,17.65
2023-12-05T12:31:34.700Z,17.47
2023-12-05T12:37:46.132Z,16.50
2023-12-05T12:40:54.830Z,18.75
2023-12-05T12:43:57.267Z,18.67
2023-12-05T12:47:00.949Z,19.17
2023-12-05T12:50:03.943Z,21.93
2023-12-05T12:53:06.372Z,21.27
2023-12-05T12:56:11.159Z,21.55
2023-12-05T12:59:14.258Z,23.15
2023-12-05T13:02:17.064Z,21.23
2023-12-05T13:05:19.647Z,19.73
2023-12-05T13:08:22.136Z,18.92
2023-12-05T13:11:24.537Z,19.88
2023-12-05T13:14:27.060Z,18.65
2023-12-05T13:17:30.841Z,18.53
2023-12-05T13:20:33.289Z,16.30
2023-12-05T13:23:35.698Z,15.77
2023-12-05T13:26:38.825Z,16.67
2023-12-05T13:29:41.269Z,16.85
2023-12-05T13:32:44.621Z,15.10
2023-12-05T13:35:47.108Z,16.43
2023-12-05T13:38:50.234Z,16.80
2023-12-05T13:41:52.644Z,16.48
2023-12-05T13:44:55.037Z,17.38
2023-12-05T13:47:57.595Z,18.43
2023-12-05T13:51:00.138Z,17.43
2023-12-05T13:54:02.728Z,18.80
2023-12-05T13:57:06.320Z,17.38
2023-12-05T14:00:09.517Z,15.65
2023-12-05T14:03:11.942Z,17.13
2023-12-05T14:06:14.462Z,17.33
2023-12-05T14:09:16.958Z,16.65
2023-12-05T14:12:19.564Z,16.73
2023-12-05T14:15:25.051Z,15.63
2023-12-05T14:18:28.577Z,17.53
2023-12-05T14:21:31.506Z,17.27
2023-12-05T14:24:34.328Z,17.27
2023-12-05T14:27:38.575Z,15.65
2023-12-05T14:30:41.961Z,15.25
2023-12-05T14:33:45.030Z,14.70
2023-12-05T14:36:47.707Z,14.87
2023-12-05T14:39:52.139Z,15.25
2023-12-05T14:42:55.482Z,15.57
2023-12-05T14:45:57.962Z,15.98
2023-12-05T14:49:00.576Z,15.73
2023-12-05T14:52:04.638Z,16.30
2023-12-05T14:55:07.323Z,15.15
2023-12-05T14:58:09.887Z,17.05
2023-12-05T15:01:12.355Z,16.20
2023-12-05T15:04:14.933Z,17.40
2023-12-05T15:07:17.610Z,16.57
2023-12-05T15:10:20.249Z,17.33
2023-12-05T15:13:22.715Z,15.77
2023-12-05T15:16:25.265Z,15.07
2023-12-05T15:19:29.574Z,16.40
2023-12-05T15:22:32.024Z,15.10
2023-12-05T15:25:35.370Z,16.08
2023-12-05T15:28:39.400Z,15.60
2023-12-05T15:31:43.163Z,19.05
2023-12-05T15:34:45.581Z,24.37
2023-12-05T15:37:47.968Z,25.47
2023-12-05T15:40:50.435Z,23.02
2023-12-05T15:43:52.863Z,24.30
2023-12-05T15:46:55.501Z,19.15
2023-12-05T15:49:59.045Z,24.03
2023-12-05T15:53:04.345Z,17.83
2023-12-05T15:56:07.217Z,19.13
2023-12-05T15:59:10.776Z,24.42
2023-12-05T16:02:13.219Z,27.73
2023-12-05T16:05:16.191Z,25.20
2023-12-05T16:08:18.664Z,29.17
2023-12-05T16:11:21.156Z,25.00
2023-12-05T16:14:23.549Z,15.82
2023-12-05T16:17:25.944Z,19.10
2023-12-05T16:20:28.339Z,17.60
2023-12-05T16:23:31.155Z,18.73
2023-12-05T16:26:39.543Z,18.63
2023-12-05T16:29:42.050Z,16.70
2023-12-05T16:32:44.490Z,18.00
2023-12-05T16:35:46.914Z,18.00
2023-12-05T16:38:49.382Z,17.60
2023-12-05T16:41:51.818Z,17.95
2023-12-05T16:44:54.299Z,20.67
2023-12-05T16:47:59.701Z,26.25
2023-12-05T16:51:02.621Z,19.43
2023-12-05T16:54:05.210Z,17.90
2023-12-05T16:57:07.594Z,17.75
2023-12-05T17:00:10.331Z,18.73
2023-12-05T17:03:12.797Z,18.08
2023-12-05T17:06:15.275Z,25.33
2023-12-05T17:09:19.778Z,47.37
2023-12-05T17:12:22.372Z,39.60
2023-12-05T17:15:24.732Z,46.45
2023-12-05T17:18:27.228Z,41.75
2023-12-05T17:21:29.736Z,28.83
2023-12-05T17:24:32.221Z,24.07
2023-12-05T17:27:34.688Z,25.70
2023-12-05T17:30:37.218Z,27.02
2023-12-05T17:33:39.809Z,39.58
2023-12-05T17:36:42.439Z,37.17
2023-12-05T17:39:44.898Z,28.63
2023-12-05T17:42:47.460Z,30.13
2023-12-05T17:45:49.921Z,30.15
2023-12-05T17:48:52.480Z,28.00
2023-12-05T17:51:54.983Z,24.67
2023-12-05T17:54:57.466Z,25.93
2023-12-05T17:58:00.110Z,25.35
2023-12-05T18:01:02.771Z,23.30
2023-12-05T18:04:05.687Z,24.45
2023-12-05T18:07:50.719Z,49.43
2023-12-05T18:10:30.698Z,31.43
2023-12-05T18:13:34.084Z,29.50
2023-12-05T18:16:36.824Z,25.17
2023-12-05T18:19:44.930Z,19.48
2023-12-05T18:22:48.978Z,18.70
2023-12-05T18:25:51.371Z,19.80
2023-12-05T18:28:54.367Z,18.73
2023-12-05T18:31:56.795Z,18.15
2023-12-05T18:34:59.269Z,17.75
2023-12-05T18:38:01.697Z,17.90
2023-12-05T18:41:04.285Z,19.77
2023-12-05T18:44:06.719Z,20.65
2023-12-05T18:47:09.115Z,22.13
2023-12-05T18:50:11.596Z,32.35
2023-12-05T18:53:14.153Z,23.50
2023-12-05T18:56:16.635Z,27.77
2023-12-05T18:59:19.449Z,37.55
2023-12-05T19:02:22.944Z,22.77
2023-12-05T19:05:25.445Z,20.98
2023-12-05T19:08:27.814Z,25.23
2023-12-05T19:11:30.244Z,20.53
2023-12-05T19:14:33.807Z,20.42
2023-12-05T19:17:36.330Z,20.83
2023-12-05T19:20:38.715Z,19.83
2023-12-05T19:23:41.150Z,20.10
2023-12-05T19:26:43.621Z,19.43
2023-12-05T19:29:45.985Z,19.00
2023-12-05T19:32:48.617Z,19.17
2023-12-05T19:35:51.099Z,18.75
2023-12-05T19:38:53.885Z,19.03
2023-12-05T19:41:56.354Z,18.93
2023-12-05T19:44:59.148Z,23.88
2023-12-05T19:48:01.598Z,25.17
2023-12-05T19:51:04.066Z,24.95
2023-12-05T19:54:07.164Z,24.83
2023-12-05T19:57:09.562Z,21.37
2023-12-05T20:00:12.373Z,21.20
2023-12-05T20:03:16.049Z,19.98
2023-12-05T20:06:19.226Z,20.55
2023-12-05T20:09:21.946Z,20.37
2023-12-05T20:12:24.552Z,22.80
2023-12-05T20:15:27.022Z,22.58
2023-12-05T20:18:29.545Z,21.98
2023-12-05T20:21:32.057Z,23.00
2023-12-05T20:24:34.725Z,28.10
2023-12-05T20:27:37.243Z,22.60
2023-12-05T20:30:39.890Z,24.40
2023-12-05T20:33:42.448Z,26.80
2023-12-05T20:36:44.940Z,25.23
2023-12-05T20:39:47.400Z,28.57
2023-12-05T20:42:49.883Z,26.33
2023-12-05T20:45:52.371Z,24.92
2023-12-05T20:48:54.792Z,20.25
2023-12-05T20:51:57.291Z,27.50
2023-12-05T20:54:59.757Z,32.97
2023-12-05T20:58:02.173Z,33.17
2023-12-05T21:01:06.240Z,35.72
2023-12-05T21:04:08.800Z,32.25
2023-12-05T21:07:13.342Z,24.15
2023-12-05T21:10:15.899Z,23.87
2023-12-05T21:13:18.354Z,19.57
2023-12-05T21:16:20.764Z,20.20
2023-12-05T21:19:23.179Z,22.20
2023-12-05T21:22:26.313Z,21.95
2023-12-05T21:25:28.924Z,22.87
2023-12-05T21:28:31.744Z,19.87
2023-12-05T21:31:34.164Z,21.30
2023-12-05T21:34:41.184Z,20.27
2023-12-05T21:37:45.000Z,19.70
2023-12-05T21:40:47.595Z,19.97
2023-12-05T21:43:49.988Z,20.90
2023-12-05T21:46:52.415Z,20.08
2023-12-05T21:49:54.891Z,19.75
2023-12-05T21:52:57.345Z,18.98
2023-12-05T21:55:59.752Z,19.03
2023-12-05T21:59:02.211Z,18.27
2023-12-05T22:02:04.736Z,17.65
2023-12-05T22:05:07.491Z,17.08
2023-12-05T22:08:09.952Z,17.15
2023-12-05T22:11:13.283Z,19.83
2023-12-05T22:14:15.783Z,17.73
2023-12-05T22:17:18.421Z,16.67
2023-12-05T22:20:21.045Z,19.25
2023-12-05T22:23:25.677Z,17.85
2023-12-05T22:26:29.076Z,16.63
2023-12-05T22:29:31.532Z,17.60
2023-12-05T22:32:33.964Z,17.75
2023-12-05T22:35:38.965Z,17.33
2023-12-05T22:38:41.316Z,16.85
2023-12-05T22:41:46.616Z,16.40
2023-12-05T22:44:49.130Z,17.77
2023-12-05T22:47:51.570Z,19.13
2023-12-05T22:50:53.982Z,18.92
2023-12-05T22:53:56.800Z,19.90
2023-12-05T22:56:59.298Z,16.43
2023-12-05T23:00:02.774Z,17.87
2023-12-05T23:03:05.319Z,18.83
2023-12-05T23:06:08.078Z,18.45
2023-12-05T23:09:10.687Z,18.90
2023-12-05T23:12:13.029Z,17.87
2023-12-05T23:15:15.405Z,17.80
2023-12-05T23:18:17.991Z,17.52
2023-12-05T23:21:20.345Z,16.13
2023-12-05T23:24:22.881Z,18.13
2023-12-05T23:27:25.487Z,15.67
2023-12-05T23:30:28.707Z,17.70
2023-12-05T23:33:31.341Z,19.10
2023-12-05T23:36:33.825Z,19.10
2023-12-05T23:39:36.415Z,21.55
2023-12-05T23:42:38.838Z,27.47
2023-12-05T23:45:41.288Z,25.67
2023-12-05T23:48:44.528Z,20.75
2023-12-05T23:51:47.068Z,17.88
2023-12-05T23:54:49.965Z,18.17
2023-12-05T23:57:52.407Z,18.40
